createdAt,value
2018-02-24T00:00:49.002Z,-1.89
2018-02-24T00:03:17.389Z,-1.52
2018-02-24T00:05:45.854Z,-1.85
2018-02-24T00:08:14.354Z,-1.93
2018-02-24T00:10:42.752Z,-0.76
2018-02-24T00:13:11.225Z,-1.32
2018-02-24T00:15:39.627Z,-0.94
2018-02-24T00:18:08.035Z,-0.80
2018-02-24T00:20:36.472Z,-1.20
2018-02-24T00:23:04.866Z,-1.94
2018-02-24T00:25:33.374Z,-1.49
2018-02-24T00:28:01.800Z,-0.64
2018-02-24T00:30:30.228Z,-1.48
2018-02-24T00:32:58.625Z,-1.76
2018-02-24T00:35:27.026Z,-1.43
2018-02-24T00:37:55.562Z,-1.91
2018-02-24T00:40:23.975Z,-0.65
2018-02-24T00:42:52.441Z,-1.02
2018-02-24T00:45:20.881Z,-1.94
2018-02-24T00:47:49.299Z,-1.81
2018-02-24T00:50:17.822Z,-1.83
2018-02-24T00:52:46.331Z,-2.10
2018-02-24T00:55:15.072Z,-1.75
2018-02-24T00:57:43.472Z,-1.27
2018-02-24T01:00:11.958Z,-1.95
2018-02-24T01:02:40.373Z,-1.77
2018-02-24T01:05:08.795Z,-2.24
2018-02-24T01:07:37.346Z,-1.56
2018-02-24T01:10:05.744Z,-2.17
2018-02-24T01:12:34.153Z,-2.34
2018-02-24T01:15:02.640Z,-2.13
2018-02-24T01:17:31.048Z,-2.49
2018-02-24T01:19:59.702Z,-2.84
2018-02-24T01:22:28.105Z,-2.05
2018-02-24T01:24:56.608Z,-2.77
2018-02-24T01:27:25.019Z,-2.53
2018-02-24T01:29:53.470Z,-2.53
2018-02-24T01:32:21.945Z,-2.42
2018-02-24T01:34:50.351Z,-2.50
2018-02-24T01:37:18.821Z,-2.47
2018-02-24T01:39:47.290Z,-2.69
2018-02-24T01:42:15.737Z,-2.06
2018-02-24T01:44:44.140Z,-3.32
2018-02-24T01:47:12.650Z,-1.86
2018-02-24T01:49:41.083Z,-2.73
2018-02-24T01:52:09.451Z,-1.48
2018-02-24T01:54:38.081Z,-1.26
2018-02-24T01:57:06.502Z,-2.36
2018-02-24T01:59:34.950Z,-2.14
2018-02-24T02:02:03.328Z,-1.90
2018-02-24T02:04:31.908Z,-1.09
2018-02-24T02:07:00.396Z,-1.61
2018-02-24T02:09:28.783Z,-1.43
2018-02-24T02:11:57.202Z,-2.06
2018-02-24T02:14:25.569Z,-1.90
2018-02-24T02:16:54.205Z,-1.84
2018-02-24T02:19:22.711Z,-3.23
2018-02-24T02:21:51.139Z,-2.55
2018-02-24T02:24:19.631Z,-1.20
2018-02-24T02:26:48.091Z,-1.50
2018-02-24T02:29:16.536Z,-1.88
2018-02-24T02:31:44.958Z,-2.10
2018-02-24T02:34:13.363Z,-1.74
2018-02-24T02:36:41.867Z,-1.32
2018-02-24T02:39:10.401Z,-2.48
2018-02-24T02:41:38.919Z,-2.40
2018-02-24T02:44:07.288Z,-2.46
2018-02-24T02:46:35.706Z,-2.80
2018-02-24T02:49:04.088Z,-2.32
2018-02-24T02:51:32.556Z,-1.79
2018-02-24T02:54:00.998Z,-1.77
2018-02-24T02:56:29.386Z,-1.41
2018-02-24T02:58:57.884Z,-3.01
2018-02-24T03:01:26.387Z,-1.98
2018-02-24T03:03:54.860Z,-2.57
2018-02-24T03:06:23.260Z,-1.54
2018-02-24T03:08:51.674Z,-2.44
2018-02-24T03:11:20.050Z,-2.21
2018-02-24T03:13:48.672Z,-2.33
2018-02-24T03:16:17.224Z,-1.51
2018-02-24T03:18:45.632Z,-1.01
2018-02-24T03:21:14.076Z,-1.94
2018-02-24T03:23:43.426Z,-1.52
2018-02-24T03:26:11.986Z,-1.04
2018-02-24T03:28:40.445Z,-1.75
2018-02-24T03:31:08.858Z,-1.52
2018-02-24T03:33:37.276Z,-1.55
2018-02-24T03:36:05.658Z,-0.94
2018-02-24T03:38:34.064Z,-2.06
2018-02-24T03:41:02.546Z,-1.65
2018-02-24T03:43:30.942Z,-2.51
2018-02-24T03:46:00.278Z,-2.72
2018-02-24T03:48:28.662Z,-1.92
2018-02-24T03:50:57.143Z,-2.17
2018-02-24T03:53:25.554Z,-2.43
2018-02-24T03:55:54.296Z,-3.36
2018-02-24T03:58:22.740Z,-3.11
2018-02-24T04:00:51.207Z,-3.05
2018-02-24T04:03:19.600Z,-3.18
2018-02-24T04:05:48.036Z,-2.45
2018-02-24T04:08:16.428Z,-3.57
2018-02-24T04:10:44.838Z,-2.88
2018-02-24T04:13:13.316Z,-2.27
2018-02-24T04:15:41.700Z,-2.22
2018-02-24T04:18:10.196Z,-2.05
2018-02-24T04:20:38.593Z,-2.25
2018-02-24T04:23:07.134Z,-3.68
2018-02-24T04:25:35.573Z,-2.87
2018-02-24T04:28:03.946Z,-3.67
2018-02-24T04:30:32.360Z,-1.90
2018-02-24T04:33:00.767Z,-2.66
2018-02-24T04:35:29.332Z,-2.91
2018-02-24T04:37:57.764Z,-3.02
2018-02-24T04:40:26.267Z,-3.27
2018-02-24T04:42:54.653Z,-2.64
2018-02-24T04:45:23.147Z,-3.58
2018-02-24T04:47:51.608Z,-2.95
2018-02-24T04:50:20.006Z,-2.88
2018-02-24T04:52:48.431Z,-2.97
2018-02-24T04:55:16.993Z,-3.16
2018-02-24T04:57:45.393Z,-2.59
2018-02-24T05:00:13.868Z,-2.12
2018-02-24T05:02:42.288Z,-2.15
2018-02-24T05:05:10.682Z,-2.84
2018-02-24T05:07:39.124Z,-2.02
2018-02-24T05:10:07.526Z,-2.23
2018-02-24T05:12:36.998Z,-1.57
2018-02-24T05:15:05.643Z,-1.80
2018-02-24T05:17:34.058Z,-2.41
2018-02-24T05:20:02.457Z,-2.40
2018-02-24T05:22:31.012Z,-2.38
2018-02-24T05:24:59.421Z,-2.45
2018-02-24T05:27:27.826Z,-2.69
2018-02-24T05:29:56.219Z,-2.68
2018-02-24T05:32:24.633Z,-1.95
2018-02-24T05:34:53.094Z,-2.29
2018-02-24T05:37:21.501Z,-1.89
2018-02-24T05:39:49.915Z,-2.01
2018-02-24T05:42:18.321Z,-1.93
2018-02-24T05:44:46.723Z,-2.68
2018-02-24T05:47:15.500Z,-1.84
2018-02-24T05:49:43.898Z,-1.29
2018-02-24T05:52:12.314Z,-2.59
2018-02-24T05:54:40.716Z,-2.54
2018-02-24T05:57:09.160Z,-2.59
2018-02-24T05:59:37.655Z,-2.66
2018-02-24T06:02:06.046Z,-2.92
2018-02-24T06:04:34.428Z,-2.20
2018-02-24T06:07:02.807Z,-2.88
2018-02-24T06:09:31.337Z,-2.61
2018-02-24T06:11:59.838Z,-2.59
2018-02-24T06:14:28.345Z,-2.96
2018-02-24T06:16:56.760Z,-2.27
2018-02-24T06:19:25.178Z,-2.85
2018-02-24T06:21:53.664Z,-2.87
2018-02-24T06:24:22.068Z,-3.28
2018-02-24T06:26:50.629Z,-2.72
2018-02-24T06:29:19.049Z,-3.17
2018-02-24T06:31:47.515Z,-2.65
2018-02-24T06:34:15.938Z,-2.32
2018-02-24T06:36:44.315Z,-2.20
2018-02-24T06:39:12.713Z,-2.93
2018-02-24T06:41:41.190Z,-2.38
2018-02-24T06:44:09.777Z,-1.82
2018-02-24T06:46:38.175Z,-2.29
2018-02-24T06:49:06.730Z,-3.00
2018-02-24T06:51:35.157Z,-2.80
2018-02-24T06:54:03.557Z,-2.33
2018-02-24T06:56:31.950Z,-2.12
2018-02-24T06:59:00.355Z,-2.55
2018-02-24T07:01:28.841Z,-3.41
2018-02-24T07:03:57.239Z,-3.11
2018-02-24T07:06:25.645Z,-2.54
2018-02-24T07:08:54.052Z,-2.82
2018-02-24T07:11:22.528Z,-2.38
2018-02-24T07:13:50.975Z,-2.79
2018-02-24T07:16:19.682Z,-2.11
2018-02-24T07:18:48.120Z,-1.78
2018-02-24T07:21:16.506Z,-2.69
2018-02-24T07:23:44.998Z,-1.99
2018-02-24T07:26:13.412Z,-2.38
2018-02-24T07:28:41.835Z,-1.90
2018-02-24T07:31:13.861Z,-2.01
2018-02-24T07:33:42.263Z,-1.21
2018-02-24T07:36:10.675Z,-1.39
2018-02-24T07:38:39.052Z,-1.76
2018-02-24T07:41:07.442Z,-1.95
2018-02-24T07:43:35.944Z,-1.45
2018-02-24T07:46:04.375Z,-1.92
2018-02-24T07:48:32.838Z,-1.33
2018-02-24T07:51:01.289Z,-1.55
2018-02-24T07:53:29.706Z,-1.41
2018-02-24T07:55:58.503Z,-1.44
2018-02-24T07:58:27.006Z,-2.29
2018-02-24T08:00:55.438Z,-0.61
2018-02-24T08:03:23.902Z,-1.65
2018-02-24T08:05:52.393Z,-0.89
2018-02-24T08:08:20.963Z,-1.85
2018-02-24T08:10:49.398Z,-0.18
2018-02-24T08:13:17.831Z,-0.27
2018-02-24T08:15:46.271Z,-0.53
2018-02-24T08:18:14.667Z,-1.28
2018-02-24T08:20:43.158Z,1.17
2018-02-24T08:23:11.569Z,-0.23
2018-02-24T08:25:39.983Z,0.57
2018-02-24T08:28:08.388Z,0.81
2018-02-24T08:30:36.787Z,0.58
2018-02-24T08:33:05.271Z,0.97
2018-02-24T08:35:33.663Z,-0.39
2018-02-24T08:38:02.089Z,1.15
2018-02-24T08:40:30.485Z,0.45
2018-02-24T08:42:58.918Z,0.94
2018-02-24T08:45:27.387Z,-0.62
2018-02-24T08:47:55.787Z,1.26
2018-02-24T08:50:24.254Z,1.33
2018-02-24T08:52:52.748Z,1.41
2018-02-24T08:55:21.163Z,1.73
2018-02-24T08:57:49.636Z,3.25
2018-02-24T09:00:18.029Z,3.82
2018-02-24T09:02:46.441Z,4.73
2018-02-24T09:05:14.845Z,6.00
2018-02-24T09:07:43.272Z,5.47
2018-02-24T09:10:11.720Z,6.51
2018-02-24T09:12:40.104Z,6.91
2018-02-24T09:15:08.607Z,7.18
2018-02-24T09:17:37.070Z,7.27
2018-02-24T09:20:05.511Z,7.35
2018-02-24T09:22:33.918Z,6.67
2018-02-24T09:25:02.519Z,6.89
2018-02-24T09:27:31.271Z,7.18
2018-02-24T09:29:59.924Z,6.52
2018-02-24T09:32:28.471Z,6.82
2018-02-24T09:34:56.840Z,6.04
2018-02-24T09:37:25.252Z,6.46
2018-02-24T09:39:54.100Z,5.90
2018-02-24T09:42:22.512Z,6.73
2018-02-24T09:44:50.904Z,5.84
2018-02-24T09:47:19.287Z,4.21
2018-02-24T09:49:47.679Z,4.79
2018-02-24T09:52:16.149Z,4.21
2018-02-24T09:54:44.548Z,5.15
2018-02-24T09:57:12.947Z,4.11
2018-02-24T09:59:41.358Z,3.85
2018-02-24T10:02:09.831Z,4.67
2018-02-24T10:04:38.312Z,3.64
2018-02-24T10:07:06.709Z,5.19
2018-02-24T10:09:35.113Z,4.68
2018-02-24T10:12:03.516Z,3.95
2018-02-24T10:14:32.006Z,2.62
2018-02-24T10:17:00.488Z,2.12
2018-02-24T10:19:28.889Z,3.06
2018-02-24T10:21:57.458Z,2.54
2018-02-24T10:24:25.848Z,2.36
2018-02-24T10:26:54.244Z,3.11
2018-02-24T10:29:22.712Z,2.40
2018-02-24T10:31:51.118Z,2.16
2018-02-24T10:34:19.492Z,2.85
2018-02-24T10:36:47.892Z,2.61
2018-02-24T10:39:16.287Z,2.80
2018-02-24T10:41:44.780Z,3.06
2018-02-24T10:44:13.210Z,2.54
2018-02-24T10:46:41.660Z,2.91
2018-02-24T10:49:14.838Z,2.95
2018-02-24T10:51:43.312Z,2.69
2018-02-24T10:54:11.735Z,3.22
2018-02-24T10:56:40.132Z,3.18
2018-02-24T10:59:08.692Z,3.19
2018-02-24T11:01:37.180Z,2.42
2018-02-24T11:04:05.608Z,3.23
2018-02-24T11:06:34.020Z,3.33
2018-02-24T11:09:02.485Z,3.32
2018-02-24T11:11:30.949Z,2.45
2018-02-24T11:13:59.372Z,3.12
2018-02-24T11:16:27.850Z,3.28
2018-02-24T11:18:56.259Z,2.59
2018-02-24T11:21:24.662Z,2.40
2018-02-24T11:23:53.205Z,3.33
2018-02-24T11:26:21.608Z,2.61
2018-02-24T11:28:50.002Z,3.58
2018-02-24T11:31:18.540Z,3.50
2018-02-24T11:33:46.899Z,2.45
2018-02-24T11:36:15.469Z,3.93
2018-02-24T11:38:43.875Z,3.36
2018-02-24T11:41:12.267Z,3.55
2018-02-24T11:43:40.669Z,3.36
2018-02-24T11:46:09.151Z,3.52
2018-02-24T11:48:37.623Z,2.30
2018-02-24T11:51:06.038Z,2.78
2018-02-24T11:53:34.532Z,3.14
2018-02-24T11:56:03.002Z,3.42
2018-02-24T11:58:31.474Z,1.77
2018-02-24T12:00:59.985Z,3.09
2018-02-24T12:03:28.388Z,1.96
2018-02-24T12:05:56.942Z,1.78
2018-02-24T12:08:25.328Z,3.52
2018-02-24T12:10:53.694Z,1.84
2018-02-24T12:13:22.114Z,2.03
2018-02-24T12:15:50.561Z,2.35
2018-02-24T12:18:18.999Z,2.09
2018-02-24T12:20:47.416Z,3.17
2018-02-24T12:23:15.833Z,2.93
2018-02-24T12:25:44.236Z,2.77
2018-02-24T12:28:12.648Z,3.59
2018-02-24T12:30:41.114Z,3.03
2018-02-24T12:33:09.491Z,2.88
2018-02-24T12:35:38.936Z,2.60
2018-02-24T12:38:07.335Z,2.57
2018-02-24T12:40:35.811Z,1.77
2018-02-24T12:43:04.183Z,2.32
2018-02-24T12:45:32.690Z,2.20
2018-02-24T12:48:01.063Z,2.66
2018-02-24T12:50:29.441Z,2.78
2018-02-24T12:52:57.876Z,3.29
2018-02-24T12:55:26.293Z,4.37
2018-02-24T12:57:54.798Z,3.45
2018-02-24T13:00:23.201Z,3.70
2018-02-24T13:02:51.696Z,3.52
2018-02-24T13:05:20.084Z,3.88
2018-02-24T13:07:48.472Z,3.15
2018-02-24T13:10:17.269Z,3.99
2018-02-24T13:12:45.665Z,4.68
2018-02-24T13:15:14.075Z,3.61
2018-02-24T13:17:42.481Z,3.28
2018-02-24T13:20:10.870Z,4.73
2018-02-24T13:22:39.342Z,3.50
2018-02-24T13:25:07.804Z,3.75
2018-02-24T13:27:36.239Z,3.98
2018-02-24T13:30:04.623Z,3.64
2018-02-24T13:32:33.032Z,3.54
2018-02-24T13:35:01.495Z,3.56
2018-02-24T13:37:29.916Z,3.96
2018-02-24T13:39:58.305Z,3.07
2018-02-24T13:42:26.702Z,3.57
2018-02-24T13:44:55.120Z,3.35
2018-02-24T13:47:23.618Z,4.32
2018-02-24T13:49:52.124Z,3.18
2018-02-24T13:52:20.524Z,2.90
2018-02-24T13:54:48.910Z,3.02
2018-02-24T13:57:17.411Z,3.23
2018-02-24T13:59:45.926Z,4.52
2018-02-24T14:02:14.459Z,4.20
2018-02-24T14:04:42.835Z,4.75
2018-02-24T14:07:11.218Z,4.98
2018-02-24T14:09:39.659Z,2.24
2018-02-24T14:12:08.208Z,3.22
2018-02-24T14:14:36.618Z,2.67
2018-02-24T14:17:05.014Z,3.45
2018-02-24T14:19:33.411Z,3.89
2018-02-24T14:22:01.804Z,4.31
2018-02-24T14:24:30.420Z,2.78
2018-02-24T14:26:58.818Z,3.56
2018-02-24T14:29:27.223Z,3.70
2018-02-24T14:31:55.790Z,3.56
2018-02-24T14:34:24.279Z,3.37
2018-02-24T14:36:52.722Z,2.34
2018-02-24T14:39:21.246Z,2.84
2018-02-24T14:41:49.643Z,2.90
2018-02-24T14:44:18.129Z,2.54
2018-02-24T14:46:46.552Z,2.60
2018-02-24T14:49:15.005Z,2.79
2018-02-24T14:51:43.549Z,2.18
2018-02-24T14:54:12.906Z,2.65
2018-02-24T14:56:41.324Z,3.26
2018-02-24T14:59:09.725Z,2.72
2018-02-24T15:01:38.313Z,3.14
2018-02-24T15:04:06.764Z,2.47
2018-02-24T15:06:35.175Z,2.54
2018-02-24T15:09:03.694Z,2.79
2018-02-24T15:11:32.145Z,4.10
2018-02-24T15:14:00.571Z,3.14
2018-02-24T15:16:28.932Z,2.62
2018-02-24T15:18:57.417Z,2.15
2018-02-24T15:21:25.873Z,3.19
2018-02-24T15:23:54.343Z,2.42
2018-02-24T15:26:22.754Z,1.52
2018-02-24T15:28:51.382Z,1.66
2018-02-24T15:31:19.878Z,1.78
2018-02-24T15:36:22.951Z,1.90
2018-02-24T15:38:51.372Z,2.07
2018-02-24T15:41:19.779Z,2.57
2018-02-24T15:43:48.195Z,2.92
2018-02-24T15:46:16.606Z,3.63
2018-02-24T15:48:45.081Z,2.41
2018-02-24T15:51:13.468Z,2.70
2018-02-24T15:53:41.891Z,2.29
2018-02-24T15:56:10.386Z,2.33
2018-02-24T15:58:38.908Z,2.62
2018-02-24T16:01:07.285Z,3.25
2018-02-24T16:03:35.706Z,3.31
2018-02-24T16:06:04.116Z,2.94
2018-02-24T16:08:32.513Z,3.27
2018-02-24T16:11:01.158Z,2.62
2018-02-24T16:13:29.531Z,2.30
2018-02-24T16:15:57.889Z,2.78
2018-02-24T16:18:26.297Z,2.21
2018-02-24T16:20:54.699Z,2.11
2018-02-24T16:23:23.333Z,2.64
2018-02-24T16:25:51.754Z,2.55
2018-02-24T16:28:20.251Z,3.14
2018-02-24T16:30:48.760Z,2.68
2018-02-24T16:33:17.146Z,2.95
2018-02-24T16:35:45.761Z,1.71
2018-02-24T16:38:14.141Z,1.15
2018-02-24T16:40:42.707Z,1.53
2018-02-24T16:43:11.200Z,1.96
2018-02-24T16:45:39.616Z,1.89
2018-02-24T16:48:08.020Z,1.91
2018-02-24T16:50:36.421Z,1.84
2018-02-24T16:53:05.000Z,1.81
2018-02-24T16:55:33.430Z,0.98
2018-02-24T16:58:01.833Z,1.93
2018-02-24T17:00:30.205Z,1.85
2018-02-24T17:02:58.679Z,1.64
2018-02-24T17:05:27.224Z,0.95
2018-02-24T17:07:55.708Z,1.71
2018-02-24T17:10:24.097Z,2.01
2018-02-24T17:12:52.508Z,2.32
2018-02-24T17:15:20.928Z,0.90
2018-02-24T17:17:49.470Z,2.32
2018-02-24T17:20:17.834Z,2.13
2018-02-24T17:22:46.320Z,1.16
2018-02-24T17:25:14.780Z,0.55
2018-02-24T17:27:43.167Z,0.49
2018-02-24T17:30:12.087Z,1.08
2018-02-24T17:32:40.700Z,0.83
2018-02-24T17:35:09.394Z,0.78
2018-02-24T17:37:37.947Z,1.33
2018-02-24T17:40:06.731Z,0.58
2018-02-24T17:42:35.331Z,0.70
2018-02-24T17:45:03.921Z,1.83
2018-02-24T17:47:32.456Z,1.66
2018-02-24T17:50:01.078Z,1.23
2018-02-24T17:52:29.626Z,0.59
2018-02-24T17:54:58.297Z,1.55
2018-02-24T17:57:26.913Z,0.16
2018-02-24T17:59:55.503Z,1.23
2018-02-24T18:02:24.355Z,1.04
2018-02-24T18:04:53.203Z,0.70
2018-02-24T18:07:21.906Z,1.35
2018-02-24T18:09:50.450Z,0.79
2018-02-24T18:12:19.090Z,1.27
2018-02-24T18:14:47.657Z,0.82
2018-02-24T18:17:16.300Z,1.01
2018-02-24T18:19:45.116Z,1.25
2018-02-24T18:22:13.681Z,0.40
2018-02-24T18:24:42.413Z,-0.08
2018-02-24T18:27:11.008Z,0.31
2018-02-24T18:29:39.780Z,0.30
2018-02-24T18:32:08.630Z,1.18
2018-02-24T18:34:37.684Z,0.68
2018-02-24T18:37:06.425Z,0.61
2018-02-24T18:39:35.032Z,0.03
2018-02-24T18:42:03.716Z,0.47
2018-02-24T18:44:32.505Z,0.13
2018-02-24T18:47:01.388Z,-0.45
2018-02-24T18:49:30.267Z,-0.32
2018-02-24T18:51:59.064Z,-0.48
2018-02-24T18:54:27.745Z,0.64
2018-02-24T18:56:56.136Z,1.26
2018-02-24T18:59:24.603Z,-0.33
2018-02-24T19:01:53.073Z,-0.07
2018-02-24T19:04:21.473Z,-0.47
2018-02-24T19:06:49.949Z,0.33
2018-02-24T19:09:18.357Z,-0.13
2018-02-24T19:11:46.764Z,-0.30
2018-02-24T19:14:15.230Z,0.04
2018-02-24T19:16:43.705Z,-0.14
2018-02-24T19:19:12.067Z,-1.10
2018-02-24T19:21:40.473Z,-0.17
2018-02-24T19:24:08.867Z,0.07
2018-02-24T19:26:37.384Z,0.03
2018-02-24T19:29:05.795Z,-0.37
2018-02-24T19:31:34.187Z,-0.63
2018-02-24T19:34:02.586Z,-0.01
2018-02-24T19:36:31.003Z,-0.36
2018-02-24T19:38:59.437Z,-0.34
2018-02-24T19:41:27.917Z,0.18
2018-02-24T19:43:56.464Z,0.28
2018-02-24T19:46:24.819Z,0.08
2018-02-24T19:48:53.240Z,-0.77
2018-02-24T19:51:21.631Z,-0.26
2018-02-24T19:53:50.090Z,-1.18
2018-02-24T19:56:18.613Z,-0.18
2018-02-24T19:58:47.017Z,-0.45
2018-02-24T20:01:15.433Z,-0.79
2018-02-24T20:03:43.842Z,-0.90
2018-02-24T20:06:12.244Z,-1.07
2018-02-24T20:08:40.788Z,-0.69
2018-02-24T20:11:09.848Z,-0.42
2018-02-24T20:13:38.243Z,-0.64
2018-02-24T20:16:06.654Z,-1.01
2018-02-24T20:18:35.065Z,-0.44
2018-02-24T20:21:03.663Z,-0.85
2018-02-24T20:23:32.144Z,-1.05
2018-02-24T20:26:00.559Z,-0.88
2018-02-24T20:28:28.950Z,-0.81
2018-02-24T20:30:57.328Z,-1.15
2018-02-24T20:33:25.844Z,-0.46
2018-02-24T20:35:54.231Z,0.58
2018-02-24T20:38:22.614Z,-0.76
2018-02-24T20:40:50.998Z,-0.70
2018-02-24T20:43:19.406Z,-0.60
2018-02-24T20:45:47.860Z,-1.13
2018-02-24T20:48:16.265Z,-0.33
2018-02-24T20:50:44.680Z,-0.64
2018-02-24T20:53:13.083Z,-0.04
2018-02-24T20:55:41.468Z,-0.24
2018-02-24T20:58:09.948Z,-0.51
2018-02-24T21:00:38.335Z,-0.16
2018-02-24T21:03:06.732Z,-0.79
2018-02-24T21:05:35.210Z,-0.34
2018-02-24T21:08:03.616Z,-1.24
2018-02-24T21:10:32.085Z,-1.31
2018-02-24T21:13:00.540Z,-1.09
2018-02-24T21:15:28.934Z,-0.73
2018-02-24T21:17:57.344Z,-1.82
2018-02-24T21:20:25.729Z,-0.74
2018-02-24T21:22:54.202Z,-0.82
2018-02-24T21:25:22.676Z,0.15
2018-02-24T21:27:51.067Z,-1.25
2018-02-24T21:30:19.492Z,-0.45
2018-02-24T21:32:47.879Z,-1.74
2018-02-24T21:35:16.415Z,-1.18
2018-02-24T21:37:44.851Z,-1.21
2018-02-24T21:40:13.326Z,-1.40
2018-02-24T21:42:41.783Z,-1.36
2018-02-24T21:45:10.196Z,-0.89
2018-02-24T21:47:38.655Z,-0.66
2018-02-24T21:50:07.083Z,-1.47
2018-02-24T21:52:35.486Z,-1.06
2018-02-24T21:55:03.899Z,-1.36
2018-02-24T21:57:32.299Z,-1.93
2018-02-24T22:00:00.864Z,-0.49
2018-02-24T22:02:29.254Z,-1.35
2018-02-24T22:04:57.646Z,-1.67
2018-02-24T22:07:26.153Z,-0.96
2018-02-24T22:09:54.527Z,-2.20
2018-02-24T22:12:23.099Z,-0.76
2018-02-24T22:14:51.477Z,-1.75
2018-02-24T22:17:19.879Z,-0.87
2018-02-24T22:19:48.349Z,-0.57
2018-02-24T22:22:16.740Z,-1.04
2018-02-24T22:24:45.207Z,-1.58
2018-02-24T22:27:13.616Z,-1.13
2018-02-24T22:29:42.010Z,-0.93
2018-02-24T22:32:10.412Z,-1.87
2018-02-24T22:34:38.800Z,-1.53
2018-02-24T22:37:07.288Z,-1.61
2018-02-24T22:39:35.688Z,-2.26
2018-02-24T22:42:04.136Z,-1.67
2018-02-24T22:44:32.496Z,-0.90
2018-02-24T22:47:00.882Z,-1.33
2018-02-24T22:49:29.284Z,-2.44
2018-02-24T22:51:57.666Z,-2.37
2018-02-24T22:54:26.174Z,-2.28
2018-02-24T22:56:54.544Z,-1.07
2018-02-24T22:59:23.022Z,-1.08
2018-02-24T23:01:51.429Z,-1.02
2018-02-24T23:04:19.795Z,-2.26
2018-02-24T23:06:48.342Z,-2.47
2018-02-24T23:09:16.731Z,-2.46
2018-02-24T23:11:45.125Z,-2.18
2018-02-24T23:14:13.535Z,-2.89
2018-02-24T23:16:41.935Z,-2.05
2018-02-24T23:19:10.471Z,-2.07
2018-02-24T23:21:38.854Z,-1.31
2018-02-24T23:24:07.258Z,-1.57
2018-02-24T23:26:35.646Z,-2.31
2018-02-24T23:29:04.009Z,-2.44
2018-02-24T23:31:32.431Z,-2.73
2018-02-24T23:34:00.917Z,-1.79
2018-02-24T23:36:29.316Z,-2.51
2018-02-24T23:38:57.723Z,-2.00
2018-02-24T23:41:26.141Z,-2.43
2018-02-24T23:43:54.559Z,-2.86
2018-02-24T23:46:22.991Z,-2.58
2018-02-24T23:48:51.402Z,-2.14
2018-02-24T23:51:19.810Z,-3.08
2018-02-24T23:53:48.240Z,-3.42
2018-02-24T23:56:16.695Z,-2.78
2018-02-24T23:58:45.058Z,-3.20
